Terminal Aerodrome Forecast
Issued by NWS

Home | Current Version | Previous Version | Text Only | Print | Product List | Glossary On
Versions: 1 2 3 4 5 6 7 8 9 10 11 12 13 14 15 16 17 18 19
439
FTUS42 KTAE 250520
TAFDHN
TAF
KDHN 250520Z 2506/2606 24007KT P6SM BKN005
     FM250700 27005KT 1SM BR OVC002
     FM251300 32010G18KT P6SM BKN040
     FM251700 32012G18KT P6SM SKC
     FM252300 31007KT P6SM SKC=

USA.gov is the U.S. government's official web portal to all federal, state and local government web resources and services.